createdAt,value
2018-09-11T00:01:36.200Z,86.32
2018-09-11T00:04:04.714Z,86.16
2018-09-11T00:06:33.222Z,86.17
2018-09-11T00:09:01.733Z,86.67
2018-09-11T00:11:30.224Z,86.14
2018-09-11T00:13:58.709Z,86.16
2018-09-11T00:16:27.200Z,86.09
2018-09-11T00:18:55.708Z,86.46
2018-09-11T00:21:24.255Z,86.12
2018-09-11T00:23:52.802Z,86.96
2018-09-11T00:26:21.355Z,86.16
2018-09-11T00:28:49.946Z,86.13
2018-09-11T00:31:18.526Z,86.70
2018-09-11T00:33:47.007Z,86.43
2018-09-11T00:36:15.557Z,86.76
2018-09-11T00:38:44.049Z,86.57
2018-09-11T00:41:12.557Z,86.63
2018-09-11T00:43:41.161Z,86.73
2018-09-11T00:46:09.667Z,86.32
2018-09-11T00:48:38.208Z,86.28
2018-09-11T00:51:06.691Z,86.41
2018-09-11T00:53:35.255Z,86.45
2018-09-11T00:56:03.808Z,86.79
2018-09-11T00:58:32.332Z,86.86
2018-09-11T01:01:00.853Z,86.98
2018-09-11T01:03:29.599Z,86.74
2018-09-11T01:05:58.135Z,86.44
2018-09-11T01:08:26.643Z,86.60
2018-09-11T01:10:55.138Z,87.10
2018-09-11T01:13:23.618Z,86.49
2018-09-11T01:15:52.123Z,86.58
2018-09-11T01:18:20.647Z,86.97
2018-09-11T01:20:49.237Z,86.95
2018-09-11T01:23:17.811Z,86.92
2018-09-11T01:25:46.351Z,86.86
2018-09-11T01:28:14.853Z,86.46
2018-09-11T01:30:43.340Z,86.66
2018-09-11T01:33:11.867Z,87.19
2018-09-11T01:35:40.350Z,86.30
2018-09-11T01:38:08.911Z,86.55
2018-09-11T01:40:37.439Z,87.10
2018-09-11T01:43:06.031Z,87.00
2018-09-11T01:45:34.552Z,87.13
2018-09-11T01:48:03.245Z,87.14
2018-09-11T01:50:32.102Z,86.75
2018-09-11T01:53:00.686Z,86.37
2018-09-11T01:55:29.290Z,86.83
2018-09-11T01:57:57.816Z,86.61
2018-09-11T02:00:26.319Z,86.60
2018-09-11T02:02:54.795Z,86.94
2018-09-11T02:05:23.298Z,86.68
2018-09-11T02:07:51.836Z,86.74
2018-09-11T02:10:20.323Z,86.43
2018-09-11T02:12:48.838Z,87.28
2018-09-11T02:15:17.380Z,86.72
2018-09-11T02:17:45.908Z,87.05
2018-09-11T02:20:14.510Z,87.05
2018-09-11T02:22:43.035Z,86.67
2018-09-11T02:25:11.555Z,86.63
2018-09-11T02:27:40.062Z,87.02
2018-09-11T02:30:08.534Z,86.94
2018-09-11T02:32:37.102Z,87.21
2018-09-11T02:35:05.785Z,87.24
2018-09-11T02:37:34.327Z,86.67
2018-09-11T02:40:02.845Z,87.02
2018-09-11T02:42:31.348Z,86.44
2018-09-11T02:44:59.847Z,86.94
2018-09-11T02:47:28.322Z,87.10
2018-09-11T02:49:56.831Z,86.70
2018-09-11T02:52:25.401Z,86.71
2018-09-11T02:54:54.008Z,86.98
2018-09-11T02:57:22.704Z,86.65
2018-09-11T02:59:51.182Z,87.12
2018-09-11T03:02:19.690Z,86.45
2018-09-11T03:04:48.193Z,86.50
2018-09-11T03:07:16.662Z,87.03
2018-09-11T03:09:45.217Z,87.07
2018-09-11T03:12:13.767Z,86.79
2018-09-11T03:14:42.281Z,86.72
2018-09-11T03:17:10.806Z,87.28
2018-09-11T03:19:39.372Z,86.98
2018-09-11T03:22:07.863Z,87.12
2018-09-11T03:24:36.396Z,86.67
2018-09-11T03:27:04.938Z,86.96
2018-09-11T03:29:33.463Z,86.69
2018-09-11T03:32:02.025Z,86.42
2018-09-11T03:34:30.717Z,87.15
2018-09-11T03:36:59.616Z,86.70
2018-09-11T03:39:28.464Z,86.58
2018-09-11T03:41:57.199Z,87.20
2018-09-11T03:44:25.846Z,87.20
2018-09-11T03:46:54.701Z,86.99
2018-09-11T03:49:23.423Z,87.20
2018-09-11T03:51:52.405Z,86.62
2018-09-11T03:54:21.207Z,86.60
2018-09-11T03:56:50.218Z,86.93
2018-09-11T03:59:19.037Z,87.17
2018-09-11T04:01:47.801Z,86.80
2018-09-11T04:04:16.311Z,86.59
2018-09-11T04:06:44.849Z,86.86
2018-09-11T04:09:13.889Z,87.27
2018-09-11T04:11:43.199Z,87.28
2018-09-11T04:14:11.958Z,86.89
2018-09-11T04:16:40.575Z,86.80
2018-09-11T04:19:09.163Z,87.14
2018-09-11T04:21:37.762Z,86.85
2018-09-11T04:24:07.403Z,87.23
2018-09-11T04:26:36.003Z,86.84
2018-09-11T04:29:04.773Z,87.24
2018-09-11T04:31:33.466Z,87.15
2018-09-11T04:34:02.101Z,86.81
2018-09-11T04:36:30.706Z,86.83
2018-09-11T04:38:59.249Z,87.15
2018-09-11T04:41:27.817Z,86.85
2018-09-11T04:43:56.390Z,87.18
2018-09-11T04:46:25.102Z,87.19
2018-09-11T04:48:53.593Z,87.22
2018-09-11T04:51:22.135Z,87.12
2018-09-11T04:53:50.686Z,87.17
2018-09-11T04:56:19.207Z,87.08
2018-09-11T04:58:47.768Z,86.91
2018-09-11T05:01:16.383Z,87.65
2018-09-11T05:03:44.937Z,86.93
2018-09-11T05:06:13.406Z,87.31
2018-09-11T05:08:41.939Z,87.33
2018-09-11T05:11:10.450Z,86.86
2018-09-11T05:13:39.013Z,86.81
2018-09-11T05:16:07.489Z,87.20
2018-09-11T05:18:36.055Z,86.83
2018-09-11T05:21:04.564Z,87.25
2018-09-11T05:23:33.143Z,86.83
2018-09-11T05:26:01.711Z,86.96
2018-09-11T05:28:30.230Z,87.31
2018-09-11T05:30:58.776Z,86.83
2018-09-11T05:33:27.289Z,87.33
2018-09-11T05:35:55.809Z,86.88
2018-09-11T05:38:24.355Z,86.89
2018-09-11T05:40:52.866Z,87.39
2018-09-11T05:43:21.384Z,87.29
2018-09-11T05:45:50.052Z,87.44
2018-09-11T05:48:18.687Z,87.19
2018-09-11T05:50:48.287Z,86.80
2018-09-11T05:53:16.913Z,87.39
2018-09-11T05:55:45.563Z,87.17
2018-09-11T05:58:14.166Z,87.46
2018-09-11T06:00:42.819Z,87.42
2018-09-11T06:03:11.362Z,87.35
2018-09-11T06:05:39.915Z,87.03
2018-09-11T06:08:09.639Z,86.84
2018-09-11T06:10:40.305Z,86.78
2018-09-11T06:13:08.907Z,87.26
2018-09-11T06:15:37.457Z,87.02
2018-09-11T06:18:06.156Z,87.04
2018-09-11T06:20:34.681Z,87.45
2018-09-11T06:23:03.261Z,87.02
2018-09-11T06:25:31.865Z,87.63
2018-09-11T06:28:00.512Z,86.60
2018-09-11T06:30:29.071Z,87.27
2018-09-11T06:32:57.596Z,87.13
2018-09-11T06:35:26.121Z,86.93
2018-09-11T06:37:54.703Z,87.55
2018-09-11T06:40:23.262Z,87.57
2018-09-11T06:42:51.871Z,86.92
2018-09-11T06:45:21.134Z,86.86
2018-09-11T06:47:49.672Z,86.93
2018-09-11T06:50:18.341Z,87.22
2018-09-11T06:52:46.980Z,87.15
2018-09-11T06:55:15.771Z,86.66
2018-09-11T06:57:44.322Z,86.11
2018-09-11T07:00:13.376Z,86.05
2018-09-11T07:02:41.938Z,85.63
2018-09-11T07:05:10.469Z,85.38
2018-09-11T07:07:39.025Z,84.06
2018-09-11T07:10:07.919Z,82.55
2018-09-11T07:12:36.538Z,82.96
2018-09-11T07:15:05.058Z,79.26
2018-09-11T07:17:33.630Z,79.29
2018-09-11T07:20:02.420Z,78.38
2018-09-11T07:22:30.883Z,79.07
2018-09-11T07:24:59.633Z,80.15
2018-09-11T07:27:28.178Z,79.75
2018-09-11T07:29:56.879Z,79.24
2018-09-11T07:32:25.457Z,78.97
2018-09-11T07:34:54.022Z,79.37
2018-09-11T07:37:22.641Z,79.74
2018-09-11T07:39:51.177Z,79.58
2018-09-11T07:42:19.700Z,79.60
2018-09-11T07:44:48.262Z,79.85
2018-09-11T07:47:16.798Z,80.19
2018-09-11T07:49:45.386Z,80.06
2018-09-11T07:52:13.910Z,79.81
2018-09-11T07:54:42.494Z,79.83
2018-09-11T07:57:11.062Z,80.46
2018-09-11T07:59:39.626Z,79.16
2018-09-11T08:02:08.352Z,79.72
2018-09-11T08:04:36.851Z,80.23
2018-09-11T08:07:05.459Z,80.82
2018-09-11T08:09:34.070Z,81.17
2018-09-11T08:12:02.729Z,80.68
2018-09-11T08:14:31.163Z,81.21
2018-09-11T08:16:59.639Z,81.40
2018-09-11T08:19:28.134Z,80.15
2018-09-11T08:21:56.666Z,79.03
2018-09-11T08:24:25.164Z,79.54
2018-09-11T08:26:53.687Z,80.09
2018-09-11T08:29:22.240Z,80.06
2018-09-11T08:31:50.712Z,80.60
2018-09-11T08:34:19.210Z,80.30
2018-09-11T08:36:47.741Z,80.69
2018-09-11T08:39:16.272Z,80.73
2018-09-11T08:41:44.776Z,80.66
2018-09-11T08:44:13.268Z,80.80
2018-09-11T08:46:41.827Z,80.94
2018-09-11T08:49:10.308Z,81.00
2018-09-11T08:51:38.794Z,81.20
2018-09-11T08:54:07.329Z,81.50
2018-09-11T08:56:35.804Z,81.53
2018-09-11T08:59:04.304Z,81.38
2018-09-11T09:01:33.427Z,81.50
2018-09-11T09:04:01.907Z,82.33
2018-09-11T09:06:30.393Z,81.98
2018-09-11T09:08:58.875Z,82.07
2018-09-11T09:11:27.367Z,81.93
2018-09-11T09:13:55.831Z,82.16
2018-09-11T09:16:24.381Z,82.62
2018-09-11T09:18:52.875Z,82.07
2018-09-11T09:21:21.521Z,82.77
2018-09-11T09:23:50.058Z,82.92
2018-09-11T09:26:18.527Z,82.76
2018-09-11T09:28:47.177Z,82.78
2018-09-11T09:31:15.660Z,82.39
2018-09-11T09:33:44.122Z,82.36
2018-09-11T09:36:12.581Z,82.67
2018-09-11T09:38:41.040Z,82.51
2018-09-11T09:41:09.508Z,82.65
2018-09-11T09:43:37.958Z,83.05
2018-09-11T09:46:06.393Z,82.80
2018-09-11T09:48:34.865Z,83.14
2018-09-11T09:51:03.335Z,83.49
2018-09-11T09:53:31.826Z,83.05
2018-09-11T09:56:00.300Z,82.76
2018-09-11T09:58:28.951Z,83.14
2018-09-11T10:01:01.538Z,83.39
2018-09-11T10:03:30.538Z,83.00
2018-09-11T10:05:59.044Z,83.22
2018-09-11T10:08:27.526Z,83.37
2018-09-11T10:10:56.021Z,83.14
2018-09-11T10:13:24.481Z,83.06
2018-09-11T10:15:53.119Z,82.96
2018-09-11T10:18:21.735Z,83.54
2018-09-11T10:20:50.374Z,83.95
2018-09-11T10:23:19.004Z,83.58
2018-09-11T10:25:47.699Z,83.57
2018-09-11T10:28:16.626Z,84.28
2018-09-11T10:30:45.485Z,83.68
2018-09-11T10:33:14.387Z,84.04
2018-09-11T10:35:43.197Z,83.52
2018-09-11T10:38:12.124Z,83.57
2018-09-11T10:40:40.951Z,83.71
2018-09-11T10:43:10.877Z,83.50
2018-09-11T10:45:39.711Z,83.44
2018-09-11T10:48:15.005Z,84.07
2018-09-11T10:50:43.881Z,84.10
2018-09-11T10:53:12.679Z,83.94
2018-09-11T10:55:41.548Z,83.91
2018-09-11T10:58:10.315Z,84.02
2018-09-11T11:00:39.265Z,84.15
2018-09-11T11:03:08.169Z,84.50
2018-09-11T11:05:36.966Z,84.51
2018-09-11T11:08:05.778Z,84.13
2018-09-11T11:10:34.639Z,84.09
2018-09-11T11:13:03.762Z,84.57
2018-09-11T11:15:32.548Z,84.66
2018-09-11T11:18:02.011Z,84.23
2018-09-11T11:20:31.168Z,84.44
2018-09-11T11:23:00.045Z,84.15
2018-09-11T11:25:30.123Z,83.92
2018-09-11T11:27:59.051Z,84.68
2018-09-11T11:30:27.987Z,84.73
2018-09-11T11:32:56.899Z,84.16
2018-09-11T11:35:25.532Z,84.10
2018-09-11T11:37:54.737Z,84.68
2018-09-11T11:40:23.371Z,83.59
2018-09-11T11:42:52.009Z,83.61
2018-09-11T11:45:20.807Z,84.29
2018-09-11T11:47:49.486Z,84.33
2018-09-11T11:50:18.933Z,84.96
2018-09-11T11:52:47.482Z,84.93
2018-09-11T11:55:16.060Z,85.26
2018-09-11T11:57:44.462Z,85.52
2018-09-11T12:00:12.985Z,85.10
2018-09-11T12:02:41.466Z,86.09
2018-09-11T12:05:09.969Z,86.01
2018-09-11T12:07:38.483Z,85.89
2018-09-11T12:10:07.294Z,85.96
2018-09-11T12:12:35.771Z,86.24
2018-09-11T12:15:04.389Z,86.99
2018-09-11T12:17:32.871Z,86.80
2018-09-11T12:20:01.362Z,86.60
2018-09-11T12:22:29.879Z,86.79
2018-09-11T12:24:58.378Z,87.15
2018-09-11T12:27:26.945Z,86.83
2018-09-11T12:29:55.440Z,87.12
2018-09-11T12:32:24.573Z,86.98
2018-09-11T12:34:53.067Z,87.38
2018-09-11T12:37:21.557Z,86.68
2018-09-11T12:39:50.055Z,86.59
2018-09-11T12:42:18.548Z,86.64
2018-09-11T12:44:47.096Z,87.06
2018-09-11T12:47:15.650Z,86.64
2018-09-11T12:49:44.105Z,87.13
2018-09-11T12:52:12.596Z,86.73
2018-09-11T12:54:41.089Z,87.28
2018-09-11T12:57:09.569Z,86.84
2018-09-11T12:59:38.065Z,87.25
2018-09-11T13:02:06.836Z,87.09
2018-09-11T13:04:35.328Z,86.77
2018-09-11T13:07:03.811Z,86.83
2018-09-11T13:09:32.414Z,86.66
2018-09-11T13:12:00.888Z,86.79
2018-09-11T13:14:29.365Z,86.72
2018-09-11T13:16:57.851Z,87.25
2018-09-11T13:19:26.319Z,86.49
2018-09-11T13:21:54.825Z,87.15
2018-09-11T13:24:23.338Z,86.73
2018-09-11T13:26:51.843Z,86.66
2018-09-11T13:29:20.339Z,87.06
2018-09-11T13:31:48.874Z,87.30
2018-09-11T13:34:17.358Z,87.23
2018-09-11T13:36:45.865Z,86.69
2018-09-11T13:39:14.352Z,86.99
2018-09-11T13:41:42.840Z,87.03
2018-09-11T13:44:11.348Z,86.90
2018-09-11T13:46:39.841Z,86.88
2018-09-11T13:49:08.328Z,86.56
2018-09-11T13:51:37.027Z,86.54
2018-09-11T13:54:05.520Z,87.16
2018-09-11T13:56:34.015Z,87.24
2018-09-11T13:59:02.494Z,86.82
2018-09-11T14:01:30.970Z,86.53
2018-09-11T14:03:59.449Z,86.75
2018-09-11T14:06:27.927Z,87.23
2018-09-11T14:08:56.404Z,86.60
2018-09-11T14:11:24.888Z,86.74
2018-09-11T14:13:53.380Z,86.67
2018-09-11T14:16:21.859Z,87.20
2018-09-11T14:18:50.450Z,86.62
2018-09-11T14:21:19.006Z,86.87
2018-09-11T14:23:47.450Z,86.55
2018-09-11T14:26:15.961Z,87.28
2018-09-11T14:28:44.437Z,86.78
2018-09-11T14:31:12.979Z,87.02
2018-09-11T14:33:41.520Z,86.65
2018-09-11T14:36:10.020Z,87.39
2018-09-11T14:38:38.527Z,87.25
2018-09-11T14:41:07.014Z,86.90
2018-09-11T14:43:35.574Z,86.97
2018-09-11T14:46:04.071Z,87.23
2018-09-11T14:48:32.585Z,87.14
2018-09-11T14:51:01.168Z,86.72
2018-09-11T14:53:29.690Z,86.71
2018-09-11T14:55:58.168Z,87.18
2018-09-11T14:58:26.813Z,87.13
2018-09-11T15:00:55.274Z,86.72
2018-09-11T15:03:23.984Z,86.64
2018-09-11T15:05:52.473Z,87.29
2018-09-11T15:08:20.980Z,86.75
2018-09-11T15:10:49.451Z,86.73
2018-09-11T15:13:17.927Z,87.36
2018-09-11T15:15:46.420Z,86.87
2018-09-11T15:18:14.900Z,86.94
2018-09-11T15:20:43.406Z,87.27
2018-09-11T15:23:11.904Z,87.20
2018-09-11T15:25:40.408Z,86.91
2018-09-11T15:28:09.106Z,87.01
2018-09-11T15:30:37.617Z,86.98
2018-09-11T15:33:06.415Z,86.79
2018-09-11T15:35:34.927Z,86.79
2018-09-11T15:38:03.403Z,86.99
2018-09-11T15:40:31.911Z,86.94
2018-09-11T15:43:00.395Z,86.74
2018-09-11T15:45:28.877Z,87.28
2018-09-11T15:47:57.355Z,87.01
2018-09-11T15:50:25.872Z,86.88
2018-09-11T15:52:54.342Z,87.01
2018-09-11T15:55:22.824Z,86.84
2018-09-11T15:57:51.339Z,87.21
2018-09-11T16:00:19.829Z,87.09
2018-09-11T16:02:48.306Z,86.95
2018-09-11T16:05:16.782Z,86.98
2018-09-11T16:07:45.279Z,86.71
2018-09-11T16:10:13.759Z,86.90
2018-09-11T16:12:42.291Z,87.02
2018-09-11T16:15:10.834Z,86.86
2018-09-11T16:17:39.287Z,87.00
2018-09-11T16:20:08.126Z,87.64
2018-09-11T16:22:36.617Z,87.40
2018-09-11T16:25:05.427Z,87.10
2018-09-11T16:27:33.910Z,86.93
2018-09-11T16:30:02.373Z,87.07
2018-09-11T16:32:31.012Z,86.86
2018-09-11T16:34:59.486Z,87.02
2018-09-11T16:37:27.998Z,86.85
2018-09-11T16:39:56.499Z,87.59
2018-09-11T16:42:24.993Z,87.48
2018-09-11T16:44:53.487Z,86.99
2018-09-11T16:47:21.965Z,87.30
2018-09-11T16:49:50.446Z,87.59
2018-09-11T16:52:18.915Z,87.17
2018-09-11T16:54:47.412Z,87.26
2018-09-11T16:57:15.895Z,87.34
2018-09-11T16:59:44.395Z,87.50
2018-09-11T17:02:12.963Z,87.29
2018-09-11T17:04:41.423Z,87.18
2018-09-11T17:07:09.891Z,87.11
2018-09-11T17:09:38.371Z,87.05
2018-09-11T17:12:06.924Z,87.25
2018-09-11T17:14:35.399Z,87.59
2018-09-11T17:17:03.878Z,87.69
2018-09-11T17:19:32.394Z,87.29
2018-09-11T17:22:00.858Z,87.62
2018-09-11T17:24:29.363Z,87.55
2018-09-11T17:26:57.852Z,87.30
2018-09-11T17:29:26.336Z,87.47
2018-09-11T17:31:54.824Z,87.18
2018-09-11T17:34:23.315Z,87.59
2018-09-11T17:36:51.800Z,87.78
2018-09-11T17:39:20.293Z,87.25
2018-09-11T17:41:48.775Z,87.50
2018-09-11T17:44:17.251Z,87.14
2018-09-11T17:46:45.733Z,87.64
2018-09-11T17:49:14.292Z,87.61
2018-09-11T17:51:42.725Z,87.74
2018-09-11T17:54:11.228Z,87.72
2018-09-11T17:56:39.714Z,87.30
2018-09-11T17:59:08.235Z,87.60
2018-09-11T18:01:36.711Z,87.40
2018-09-11T18:04:05.178Z,87.38
2018-09-11T18:06:33.664Z,86.76
2018-09-11T18:09:02.177Z,86.85
2018-09-11T18:11:30.934Z,87.33
2018-09-11T18:13:59.439Z,87.38
2018-09-11T18:16:28.161Z,87.40
2018-09-11T18:18:56.675Z,87.27
2018-09-11T18:21:25.220Z,86.65
2018-09-11T18:23:53.746Z,86.97
2018-09-11T18:26:22.320Z,87.42
2018-09-11T18:28:51.662Z,86.94
2018-09-11T18:31:20.336Z,87.26
2018-09-11T18:33:49.673Z,87.56
2018-09-11T18:36:18.483Z,87.22
2018-09-11T18:38:47.048Z,87.84
2018-09-11T18:41:16.020Z,87.80
2018-09-11T18:43:45.650Z,87.59
2018-09-11T18:46:15.647Z,87.71
2018-09-11T18:48:45.145Z,87.28
2018-09-11T18:51:14.424Z,87.44
2018-09-11T18:53:44.109Z,87.09
2018-09-11T18:56:13.245Z,87.70
2018-09-11T18:58:42.395Z,87.72
2018-09-11T19:01:12.161Z,87.37
2018-09-11T19:03:41.154Z,86.97
2018-09-11T19:06:09.681Z,87.62
2018-09-11T19:08:38.720Z,86.97
2018-09-11T19:11:09.052Z,87.02
2018-09-11T19:13:38.309Z,87.23
2018-09-11T19:16:07.937Z,87.17
2018-09-11T19:18:38.270Z,87.84
2018-09-11T19:21:07.420Z,87.19
2018-09-11T19:23:36.019Z,87.09
2018-09-11T19:26:04.567Z,87.67
2018-09-11T19:28:33.138Z,87.56
2018-09-11T19:31:02.986Z,87.56
2018-09-11T19:33:33.030Z,87.09
2018-09-11T19:36:01.925Z,87.33
2018-09-11T19:38:30.466Z,87.12
2018-09-11T19:40:58.989Z,87.19
2018-09-11T19:43:28.127Z,86.87
2018-09-11T19:45:56.709Z,87.08
2018-09-11T19:48:25.259Z,86.96
2018-09-11T19:50:53.808Z,86.76
2018-09-11T19:53:23.214Z,86.76
2018-09-11T19:55:51.824Z,87.84
2018-09-11T19:58:20.440Z,87.89
2018-09-11T20:00:49.064Z,87.62
2018-09-11T20:03:17.663Z,89.25
2018-09-11T20:05:47.687Z,88.80
2018-09-11T20:08:16.277Z,86.74
2018-09-11T20:10:44.964Z,89.51
2018-09-11T20:13:14.815Z,88.92
2018-09-11T20:15:43.455Z,89.01
2018-09-11T20:18:12.110Z,89.99
2018-09-11T20:20:40.764Z,90.03
2018-09-11T20:23:09.318Z,90.81
2018-09-11T20:25:37.829Z,91.69
2018-09-11T20:28:07.658Z,90.60
2018-09-11T20:30:36.178Z,90.91
2018-09-11T20:33:04.766Z,91.51
2018-09-11T20:35:33.371Z,91.43
2018-09-11T20:38:02.033Z,91.22
2018-09-11T20:40:31.202Z,91.81
2018-09-11T20:42:59.815Z,91.86
2018-09-11T20:45:28.425Z,90.83
2018-09-11T20:47:57.827Z,90.58
2018-09-11T20:50:26.380Z,90.58
2018-09-11T20:52:54.950Z,90.94
2018-09-11T20:55:23.521Z,90.31
2018-09-11T20:57:52.035Z,90.02
2018-09-11T21:00:20.565Z,90.54
2018-09-11T21:02:49.106Z,89.97
2018-09-11T21:05:17.652Z,90.44
2018-09-11T21:07:46.192Z,90.46
2018-09-11T21:10:14.780Z,90.41
2018-09-11T21:12:43.333Z,90.51
2018-09-11T21:15:11.871Z,89.82
2018-09-11T21:17:40.462Z,89.70
2018-09-11T21:20:09.065Z,90.21
2018-09-11T21:22:37.640Z,90.10
2018-09-11T21:25:06.344Z,89.63
2018-09-11T21:27:34.870Z,90.12
2018-09-11T21:30:03.428Z,90.07
2018-09-11T21:32:31.963Z,89.63
2018-09-11T21:35:00.507Z,89.55
2018-09-11T21:37:29.986Z,90.07
2018-09-11T21:39:59.538Z,89.25
2018-09-11T21:42:28.114Z,89.54
2018-09-11T21:44:56.700Z,89.23
2018-09-11T21:47:25.256Z,89.23
2018-09-11T21:49:54.752Z,89.18
2018-09-11T21:52:23.255Z,89.48
2018-09-11T21:54:51.832Z,88.99
2018-09-11T21:57:20.427Z,88.84
2018-09-11T21:59:48.979Z,89.50
2018-09-11T22:02:17.694Z,88.84
2018-09-11T22:04:48.154Z,89.43
2018-09-11T22:07:16.699Z,88.69
2018-09-11T22:09:45.275Z,88.98
2018-09-11T22:12:13.808Z,88.73
2018-09-11T22:14:42.361Z,88.91
2018-09-11T22:17:10.976Z,89.44
2018-09-11T22:19:39.738Z,89.01
2018-09-11T22:22:08.355Z,88.92
2018-09-11T22:24:37.034Z,88.78
2018-09-11T22:27:07.627Z,89.43
2018-09-11T22:29:36.368Z,88.93
2018-09-11T22:32:04.931Z,89.29
2018-09-11T22:34:33.515Z,88.94
2018-09-11T22:37:02.079Z,89.37
2018-09-11T22:39:30.674Z,89.19
2018-09-11T22:41:59.273Z,89.45
2018-09-11T22:44:27.835Z,88.98
2018-09-11T22:46:56.382Z,88.63
2018-09-11T22:49:24.987Z,89.18
2018-09-11T22:51:53.517Z,88.83
2018-09-11T22:54:22.069Z,89.04
2018-09-11T22:56:50.731Z,88.66
2018-09-11T22:59:19.303Z,89.17
2018-09-11T23:01:47.889Z,89.18
2018-09-11T23:04:17.121Z,88.76
2018-09-11T23:06:45.712Z,89.18
2018-09-11T23:09:14.430Z,89.63
2018-09-11T23:11:42.979Z,89.30
2018-09-11T23:14:11.547Z,89.15
2018-09-11T23:16:40.087Z,89.69
2018-09-11T23:19:08.673Z,89.59
2018-09-11T23:21:38.759Z,89.15
2018-09-11T23:24:07.557Z,88.89
2018-09-11T23:26:36.102Z,89.11
2018-09-11T23:29:05.999Z,89.16
2018-09-11T23:31:34.694Z,88.89
2018-09-11T23:34:03.371Z,88.72
2018-09-11T23:36:31.947Z,88.79
2018-09-11T23:39:01.304Z,88.80
2018-09-11T23:41:30.048Z,88.59
2018-09-11T23:43:59.425Z,88.95
2018-09-11T23:46:27.995Z,88.65
2018-09-11T23:48:56.535Z,89.22
2018-09-11T23:51:25.086Z,88.64
2018-09-11T23:53:53.639Z,89.17
2018-09-11T23:56:22.123Z,88.77
2018-09-11T23:58:50.745Z,89.02
